Time;durP1;ratioP1;P1;durP2;ratioP2;P2;SDS_P1;SDS_P2;PMS_P1;PMS_P2;Temp;Humidity;BMP_temperature;BMP_pressure;BME280_temperature;BME280_humidity;BME280_pressure;Samples;Min_cycle;Max_cycle;Signal;HPM_P1;HPM_P2
2023/10/12 00:02:21;;;;;;;13.60;5.40;;;;;;;18.42;27.93;100372.92;107800;1254;73490;-67
2023/10/12 00:07:38;;;;;;;17.40;6.00;;;;;;;18.54;27.79;100362.33;107959;1259;72833;-67
2023/10/12 00:12:44;;;;;;;14.50;5.20;;;;;;;18.69;27.70;100344.80;108015;1254;59697;-67
2023/10/12 00:17:53;;;;;;;15.70;5.10;;;;;;;18.59;28.07;100337.27;108038;1254;69295;-65
2023/10/12 00:20:24;;;;;;;12.90;5.80;;;;;;;18.52;28.09;100325.29;107911;1256;73199;-67
2023/10/12 00:22:52;;;;;;;19.00;4.90;;;;;;;18.66;28.04;100319.23;107987;1254;60875;-66
2023/10/12 00:25:20;;;;;;;16.80;5.40;;;;;;;18.09;28.71;100319.65;107993;1254;60249;-65
2023/10/12 00:27:47;;;;;;;15.60;5.60;;;;;;;18.09;28.85;100314.09;107982;1254;73765;-66
2023/10/12 00:30:16;;;;;;;15.00;6.00;;;;;;;18.33;28.64;100307.77;108043;1254;69461;-66
2023/10/12 00:32:43;;;;;;;14.60;5.00;;;;;;;18.27;28.71;100301.73;107997;1255;72431;-66
2023/10/12 00:35:11;;;;;;;13.90;5.00;;;;;;;18.21;28.86;100299.27;108006;1254;60303;-66
2023/10/12 00:37:41;;;;;;;13.40;5.00;;;;;;;18.12;29.09;100298.26;107899;1254;60337;-66
2023/10/12 00:40:30;;;;;;;21.20;5.40;;;;;;;18.09;29.23;100295.44;107982;1254;73881;-65
2023/10/12 00:43:00;;;;;;;12.90;5.30;;;;;;;18.56;28.79;100288.42;108002;1258;68763;-65
2023/10/12 00:45:29;;;;;;;17.10;5.00;;;;;;;18.12;29.33;100292.58;108095;1254;72078;-64
2023/10/12 00:48:16;;;;;;;13.00;4.80;;;;;;;17.85;29.74;100290.80;108093;1254;60322;-67
2023/10/12 00:50:44;;;;;;;16.40;5.00;;;;;;;17.79;30.01;100291.87;108096;1253;60191;-66
2023/10/12 00:53:15;;;;;;;13.70;5.30;;;;;;;18.20;29.47;100292.91;108045;1254;73872;-66
2023/10/12 00:55:43;;;;;;;12.40;5.30;;;;;;;18.11;29.60;100283.05;108072;1254;70261;-68
2023/10/12 00:58:14;;;;;;;12.60;5.20;;;;;;;18.10;29.77;100284.89;107989;1254;72682;-67
2023/10/12 01:00:59;;;;;;;17.30;5.60;;;;;;;18.38;29.40;100285.02;108040;1254;60465;-66
2023/10/12 01:08:46;;;;;;;10.10;5.20;;;;;;;18.19;29.84;100267.97;108058;1254;70291;-67
2023/10/12 01:11:20;;;;;;;16.50;5.90;;;;;;;18.09;30.06;100269.72;108175;1254;72640;-66
2023/10/12 01:13:49;;;;;;;13.10;5.90;;;;;;;17.88;30.34;100276.75;108045;1254;60260;-67
2023/10/12 01:16:29;;;;;;;14.70;5.50;;;;;;;18.44;29.85;100261.49;108171;1254;60305;-67
2023/10/12 01:19:00;;;;;;;15.00;5.60;;;;;;;18.77;29.43;100261.76;108038;1253;72659;-66
2023/10/12 01:21:28;;;;;;;10.80;4.70;;;;;;;18.42;29.87;100259.51;108164;1254;70256;-65
2023/10/12 01:24:05;;;;;;;18.50;5.90;;;;;;;18.77;29.54;100254.48;108089;1258;72982;-69
2023/10/12 01:26:33;;;;;;;16.10;5.70;;;;;;;18.68;29.62;100260.20;108072;1257;59135;-66
2023/10/12 01:29:01;;;;;;;11.50;5.50;;;;;;;18.52;29.87;100261.49;108169;1254;60552;-66
2023/10/12 01:31:29;;;;;;;17.20;6.90;;;;;;;18.33;30.07;100264.90;108051;1254;72132;-64
2023/10/12 01:33:57;;;;;;;18.00;6.10;;;;;;;18.65;29.89;100264.52;108065;1254;70397;-65
2023/10/12 01:36:30;;;;;;;21.70;5.90;;;;;;;18.42;30.05;100257.33;108070;1254;71396;-66
2023/10/12 01:39:12;;;;;;;16.10;5.50;;;;;;;18.45;30.28;100256.80;108028;1254;60417;-66
2023/10/12 01:41:42;;;;;;;11.40;5.50;;;;;;;18.43;30.27;100257.14;108037;1257;60323;-66
2023/10/12 01:44:11;;;;;;;17.00;5.20;;;;;;;18.50;30.19;100253.77;107927;1254;73863;-68
2023/10/12 01:46:40;;;;;;;12.40;5.10;;;;;;;18.25;30.59;100250.15;108114;1254;70065;-68
2023/10/12 01:49:09;;;;;;;11.00;5.50;;;;;;;18.64;30.12;100255.36;107966;1254;73235;-67
2023/10/12 01:51:45;;;;;;;12.50;5.80;;;;;;;18.70;30.00;100251.19;108028;1255;60522;-66
2023/10/12 01:54:22;;;;;;;16.80;6.70;;;;;;;18.53;30.31;100252.67;108046;1254;60313;-67
2023/10/12 01:56:53;;;;;;;15.60;6.40;;;;;;;18.55;30.35;100255.44;107996;1254;73903;-66
2023/10/12 01:59:20;;;;;;;19.50;6.70;;;;;;;18.44;30.55;100258.63;107900;1254;69178;-66
2023/10/12 02:01:59;;;;;;;11.90;6.00;;;;;;;18.00;31.15;100258.05;107899;1254;71426;-66
2023/10/12 02:04:27;;;;;;;15.40;6.50;;;;;;;18.00;31.20;100256.06;108046;1254;60407;-66
2023/10/12 02:06:56;;;;;;;16.10;6.40;;;;;;;18.09;31.34;100256.16;108004;1254;60585;-68
2023/10/12 02:09:23;;;;;;;15.40;6.20;;;;;;;17.97;31.37;100254.13;108098;1254;73782;-66
2023/10/12 02:11:54;;;;;;;18.40;6.60;;;;;;;18.04;31.36;100250.98;108024;1254;70086;-66
2023/10/12 02:14:24;;;;;;;20.30;7.10;;;;;;;18.00;31.62;100244.68;107991;1257;73185;-66
2023/10/12 02:16:54;;;;;;;15.20;6.40;;;;;;;17.75;31.99;100243.65;108021;1254;60404;-65
2023/10/12 02:22:23;;;;;;;20.20;7.10;;;;;;;17.72;32.20;100227.83;107932;1254;71863;-65
2023/10/12 02:24:57;;;;;;;20.00;7.30;;;;;;;17.70;32.25;100221.05;108083;1254;69141;-67
2023/10/12 02:27:26;;;;;;;18.60;7.30;;;;;;;17.42;32.70;100228.39;108023;1256;73390;-67
2023/10/12 02:29:56;;;;;;;18.50;6.70;;;;;;;17.68;32.50;100217.11;108143;1253;60023;-65
2023/10/12 02:32:24;;;;;;;22.80;7.30;;;;;;;17.76;32.37;100215.21;108031;1254;60645;-67
2023/10/12 02:34:55;;;;;;;20.60;7.00;;;;;;;17.96;32.14;100212.44;107945;1254;73844;-66
2023/10/12 02:37:25;;;;;;;17.50;7.00;;;;;;;17.56;32.67;100214.15;107979;1259;70060;-67
2023/10/12 02:39:54;;;;;;;18.40;7.20;;;;;;;17.79;32.56;100217.83;107961;1254;73278;-66
2023/10/12 02:42:22;;;;;;;17.80;6.80;;;;;;;17.82;32.54;100215.54;108147;1253;60319;-65
2023/10/12 02:47:33;;;;;;;20.30;7.50;;;;;;;17.92;32.37;100206.83;108137;1254;73949;-63
2023/10/12 02:50:14;;;;;;;18.20;7.50;;;;;;;17.74;32.71;100207.63;108159;1254;69071;-65
2023/10/12 02:52:44;;;;;;;17.90;7.60;;;;;;;17.86;32.61;100203.50;108077;1254;70440;-65
2023/10/12 02:58:06;;;;;;;23.20;7.80;;;;;;;18.00;32.48;100207.77;108107;1252;60556;-66
2023/10/12 03:03:56;;;;;;;20.90;7.60;;;;;;;18.45;31.92;100202.60;108080;1254;69140;-66
2023/10/12 03:06:07;;;;;;;18.00;7.10;;;;;;;18.17;32.28;100203.21;107915;1257;72680;-66
2023/10/12 03:08:52;;;;;;;19.20;6.90;;;;;;;18.26;32.27;100202.63;108012;1254;60402;-66
2023/10/12 03:11:25;;;;;;;18.50;7.40;;;;;;;18.31;32.15;100200.90;108114;1253;60386;-68
2023/10/12 03:14:00;;;;;;;17.60;6.30;;;;;;;18.22;32.28;100196.00;108060;1254;73818;-66
2023/10/12 03:16:34;;;;;;;22.40;6.40;;;;;;;18.40;32.05;100201.16;107984;1254;68916;-67
2023/10/12 03:19:17;;;;;;;17.60;5.90;;;;;;;18.11;32.45;100202.55;108119;1253;71030;-66
2023/10/12 03:21:49;;;;;;;17.20;5.90;;;;;;;17.84;32.93;100194.77;108092;1254;60325;-65
2023/10/12 03:24:38;;;;;;;18.40;5.80;;;;;;;17.88;32.83;100190.41;108180;1253;60290;-67
2023/10/12 03:27:13;;;;;;;15.30;5.90;;;;;;;17.90;32.85;100188.52;108125;1254;72930;-66
2023/10/12 03:29:45;;;;;;;17.30;5.30;;;;;;;18.06;32.62;100186.56;108156;1253;70726;-68
2023/10/12 03:32:19;;;;;;;10.80;4.90;;;;;;;18.02;32.71;100184.30;108110;1254;72088;-67
2023/10/12 03:34:56;;;;;;;20.80;5.60;;;;;;;17.94;32.93;100181.73;108066;1254;60571;-67
2023/10/12 03:41:45;;;;;;;14.80;5.70;;;;;;;17.90;32.95;100181.23;108112;1254;72620;-65
2023/10/12 03:43:08;;;;;;;18.30;6.20;;;;;;;17.79;33.18;100178.59;107963;1253;70923;-66
2023/10/12 03:48:26;;;;;;;16.40;5.00;;;;;;;17.93;33.06;100176.81;108073;1254;60331;-67
2023/10/12 03:50:59;;;;;;;13.20;5.50;;;;;;;18.10;32.81;100174.95;108053;1254;60080;-63
2023/10/12 03:53:26;;;;;;;15.70;6.30;;;;;;;17.66;33.45;100178.70;108084;1253;73813;-64
2023/10/12 03:56:00;;;;;;;16.00;5.70;;;;;;;18.00;32.96;100176.16;108171;1254;69066;-68
2023/10/12 03:58:28;;;;;;;12.60;6.00;;;;;;;18.28;32.67;100173.73;108019;1252;72690;-66
2023/10/12 04:04:09;;;;;;;18.50;5.60;;;;;;;18.30;32.66;100180.64;107404;1260;60209;-67
2023/10/12 04:09:31;;;;;;;16.90;6.00;;;;;;;17.99;33.06;100170.17;107825;1254;69545;-66
2023/10/12 04:14:49;;;;;;;22.90;6.30;;;;;;;17.93;33.25;100169.32;108040;1252;60373;-62
2023/10/12 04:20:34;;;;;;;21.80;6.50;;;;;;;18.35;32.85;100169.68;108062;1254;73809;-63
2023/10/12 04:28:32;;;;;;;13.10;4.50;;;;;;;18.18;33.15;100177.42;108067;1254;60453;-66
2023/10/12 04:33:24;;;;;;;14.80;6.00;;;;;;;17.81;33.75;100180.21;108074;1254;73826;-65
2023/10/12 04:36:01;;;;;;;15.50;6.60;;;;;;;17.78;33.86;100177.35;108104;1254;70588;-67
2023/10/12 04:38:46;;;;;;;14.40;6.50;;;;;;;17.85;33.79;100180.48;108098;1254;72438;-68
2023/10/12 04:43:52;;;;;;;15.10;6.30;;;;;;;17.88;33.75;100174.66;108021;1254;60469;-66
2023/10/12 04:52:05;;;;;;;13.00;5.40;;;;;;;18.11;33.64;100167.57;107561;1254;72717;-67
2023/10/12 04:57:26;;;;;;;26.70;6.80;;;;;;;17.83;34.13;100172.27;108020;1253;60326;-66
2023/10/12 05:00:17;;;;;;;21.00;7.10;;;;;;;17.73;34.39;100173.26;108060;1254;72548;-67
2023/10/12 05:03:01;;;;;;;21.40;7.90;;;;;;;17.95;34.29;100173.25;108016;1255;71374;-65
2023/10/12 05:08:17;;;;;;;17.80;6.10;;;;;;;18.36;33.72;100171.39;108023;1254;60066;-66
2023/10/12 05:10:48;;;;;;;14.80;6.20;;;;;;;18.66;33.33;100171.09;108032;1253;61530;-66
2023/10/12 05:13:22;;;;;;;15.00;5.70;;;;;;;18.57;33.56;100169.03;108043;1253;74090;-65
2023/10/12 05:15:58;;;;;;;15.40;5.80;;;;;;;18.93;33.15;100165.28;108014;1253;68328;-66
2023/10/12 05:18:26;;;;;;;19.40;5.70;;;;;;;19.05;32.91;100167.83;108006;1253;72680;-67
2023/10/12 05:20:53;;;;;;;17.20;6.20;;;;;;;19.10;32.82;100167.27;108008;1254;60579;-67
2023/10/12 05:23:21;;;;;;;19.40;6.00;;;;;;;19.59;32.33;100170.48;108031;1253;60310;-68
2023/10/12 05:28:31;;;;;;;15.60;6.30;;;;;;;19.54;32.41;100172.12;108086;1253;70017;-65
2023/10/12 05:30:59;;;;;;;16.10;5.70;;;;;;;19.75;32.30;100167.03;108053;1255;72396;-67
2023/10/12 05:36:09;;;;;;;18.70;6.70;;;;;;;19.36;32.74;100160.73;108009;1254;60508;-64
2023/10/12 05:38:52;;;;;;;15.40;6.30;;;;;;;19.75;32.34;100165.06;108031;1254;73850;-67
2023/10/12 05:41:34;;;;;;;14.40;6.00;;;;;;;19.90;32.13;100172.80;108054;1257;70091;-66
2023/10/12 05:44:03;;;;;;;16.40;6.80;;;;;;;19.86;32.25;100175.48;108045;1254;71376;-66
2023/10/12 05:46:34;;;;;;;21.30;7.40;;;;;;;19.89;32.16;100180.05;108043;1256;60898;-67
2023/10/12 05:49:03;;;;;;;;;;;;;;;19.92;32.28;100180.90;108060;1254;60536;-68
2023/10/12 05:51:30;;;;;;;18.00;8.00;;;;;;;20.01;32.08;100184.13;108224;1254;72706;-67
2023/10/12 05:54:06;;;;;;;20.60;7.50;;;;;;;20.47;31.61;100184.69;108105;1253;69090;-68
2023/10/12 05:56:37;;;;;;;22.20;8.00;;;;;;;20.64;31.36;100178.58;108067;1254;71327;-67
2023/10/12 05:59:04;;;;;;;21.60;7.80;;;;;;;20.53;31.52;100175.33;107992;1252;62451;-70
2023/10/12 06:01:37;;;;;;;19.60;7.20;;;;;;;20.64;31.52;100174.69;108112;1254;60415;-67
2023/10/12 06:04:14;;;;;;;23.10;7.80;;;;;;;20.96;31.09;100173.45;108087;1254;74088;-68
2023/10/12 06:06:42;;;;;;;19.70;6.90;;;;;;;21.77;30.26;100160.18;108105;1254;68825;-67
2023/10/12 06:09:20;;;;;;;18.90;7.20;;;;;;;21.72;30.17;100160.15;108142;1254;72417;-67
2023/10/12 06:11:48;;;;;;;15.10;7.00;;;;;;;22.05;29.81;100159.36;108124;1254;60309;-66
2023/10/12 06:14:20;;;;;;;19.80;6.70;;;;;;;22.33;29.56;100157.67;108140;1254;60446;-67
2023/10/12 06:16:54;;;;;;;15.50;6.10;;;;;;;22.48;29.36;100160.53;108078;1254;74118;-68
2023/10/12 06:21:51;;;;;;;16.80;6.40;;;;;;;22.46;29.33;100162.49;108042;1254;71338;-68
2023/10/12 06:24:33;;;;;;;23.30;6.90;;;;;;;22.74;29.18;100163.80;108004;1253;60364;-67
2023/10/12 06:27:22;;;;;;;20.40;6.70;;;;;;;23.30;28.58;100163.34;108041;1253;60357;-68
2023/10/12 06:29:54;;;;;;;12.90;6.20;;;;;;;23.39;28.34;100158.81;108082;1252;73924;-67
2023/10/12 06:32:40;;;;;;;14.90;6.90;;;;;;;23.16;28.64;100160.48;108043;1253;68813;-68
2023/10/12 06:44:12;;;;;;;15.60;5.90;;;;;;;23.64;28.24;100159.02;108019;1253;72595;-65
2023/10/12 06:45:55;;;;;;;15.90;6.00;;;;;;;23.97;28.09;100153.99;107750;1253;69244;-68
2023/10/12 06:51:33;;;;;;;14.60;6.10;;;;;;;24.79;27.06;100160.17;108042;1254;60059;-67
2023/10/12 06:54:05;;;;;;;10.00;5.10;;;;;;;25.24;26.50;100158.86;107990;1254;60494;-67
2023/10/12 06:56:38;;;;;;;15.50;6.00;;;;;;;25.90;25.95;100152.27;107980;1253;74161;-65
2023/10/12 06:59:14;;;;;;;16.80;6.10;;;;;;;25.95;25.65;100149.27;108010;1253;69586;-68
2023/10/12 07:04:14;;;;;;;21.40;6.10;;;;;;;25.78;26.06;100148.45;107873;1257;60563;-68
2023/10/12 07:07:16;;;;;;;13.60;5.30;;;;;;;26.13;25.80;100144.41;108029;1253;61949;-68
2023/10/12 07:09:39;;;;;;;19.80;6.00;;;;;;;26.42;25.52;100146.08;107991;1253;74481;-68
2023/10/12 07:12:10;;;;;;;12.80;5.10;;;;;;;27.02;24.92;100146.20;108007;1253;70137;-68
2023/10/12 07:14:42;;;;;;;15.10;5.20;;;;;;;27.64;24.34;100138.99;108006;1253;72762;-68
2023/10/12 07:17:10;;;;;;;13.90;4.60;;;;;;;27.80;24.09;100140.45;107999;1253;60351;-67
2023/10/12 07:19:46;;;;;;;11.50;5.30;;;;;;;28.12;23.75;100137.89;107997;1256;59997;-67
2023/10/12 07:22:18;;;;;;;13.80;5.20;;;;;;;27.77;24.09;100137.06;108033;1253;74361;-68
2023/10/12 07:24:53;;;;;;;15.30;5.20;;;;;;;27.46;24.81;100129.61;108028;1258;69966;-68
2023/10/12 07:27:24;;;;;;;15.50;5.80;;;;;;;27.62;24.65;100122.64;107817;1253;71500;-68
2023/10/12 07:30:10;;;;;;;20.60;5.40;;;;;;;27.70;24.76;100118.29;108005;1254;61977;-67
2023/10/12 07:32:40;;;;;;;13.70;5.40;;;;;;;27.75;24.54;100112.88;108033;1256;60285;-68
2023/10/12 07:35:18;;;;;;;16.10;5.00;;;;;;;27.70;24.61;100111.14;107730;1253;73768;-68
2023/10/12 07:37:46;;;;;;;20.70;5.40;;;;;;;27.97;24.56;100104.39;108055;1253;72300;-68
2023/10/12 07:40:17;;;;;;;19.50;5.70;;;;;;;28.40;24.16;100103.23;108071;1254;73270;-69
2023/10/12 07:42:48;;;;;;;14.10;5.20;;;;;;;28.59;23.91;100098.15;108086;1254;60396;-69
2023/10/12 07:45:17;;;;;;;10.50;4.70;;;;;;;28.86;23.71;100095.17;108056;1254;60349;-69
2023/10/12 07:47:58;;;;;;;19.40;5.30;;;;;;;29.22;23.43;100091.15;108071;1257;72845;-68
2023/10/12 07:50:28;;;;;;;12.10;5.10;;;;;;;28.78;23.86;100086.29;108159;1256;69979;-69
2023/10/12 07:53:07;;;;;;;12.80;4.40;;;;;;;28.39;24.31;100091.75;108126;1254;72629;-69
2023/10/12 07:55:41;;;;;;;16.10;5.20;;;;;;;28.29;24.64;100088.67;108056;1253;59980;-69
2023/10/12 07:58:12;;;;;;;13.80;4.80;;;;;;;28.51;24.51;100088.54;108084;1252;60266;-69
2023/10/12 08:00:51;;;;;;;15.40;5.20;;;;;;;28.96;24.08;100084.19;108108;1253;75601;-68
2023/10/12 08:03:24;;;;;;;37.00;5.60;;;;;;;29.11;23.91;100080.13;108101;1254;70229;-68
2023/10/12 08:06:54;;;;;;;18.30;4.40;;;;;;;29.12;24.11;100080.69;108039;1254;71773;-67
2023/10/12 08:08:49;;;;;;;17.80;5.20;;;;;;;29.11;24.21;100075.02;107947;1254;60104;-68
2023/10/12 08:11:27;;;;;;;9.80;4.30;;;;;;;29.36;23.99;100075.97;108107;1253;60404;-69
2023/10/12 08:13:58;;;;;;;10.50;4.70;;;;;;;29.45;23.86;100069.88;108097;1254;73810;-67
2023/10/12 08:16:26;;;;;;;14.30;4.40;;;;;;;29.54;23.80;100066.58;108075;1257;68992;-68
2023/10/12 08:21:38;;;;;;;14.70;5.10;;;;;;;30.02;23.41;100066.98;108247;1253;60473;-69
2023/10/12 08:26:00;;;;;;;13.50;5.10;;;;;;;29.38;24.64;100071.23;104892;1292;600846;-69
2023/10/12 08:28:36;;;;;;;18.60;5.40;;;;;;;30.72;22.93;100067.03;107345;1264;59045;-70
2023/10/12 08:31:15;;;;;;;15.40;4.70;;;;;;;30.92;22.75;100057.27;107293;1264;60076;-70
2023/10/12 08:33:49;;;;;;;16.70;4.90;;;;;;;31.01;22.72;100062.96;107537;1259;72332;-70
2023/10/12 08:36:23;;;;;;;14.40;5.40;;;;;;;30.68;23.06;100066.88;107478;1262;70490;-68
2023/10/12 08:38:54;;;;;;;10.90;5.00;;;;;;;30.75;23.03;100060.23;107364;1259;208075;-68
2023/10/12 08:41:36;;;;;;;17.70;4.50;;;;;;;30.90;22.91;100057.51;107695;1259;60143;-67
2023/10/12 08:44:05;;;;;;;14.00;5.10;;;;;;;30.91;22.85;100052.03;107651;1260;60021;-70
2023/10/12 08:55:13;;;;;;;15.60;4.60;;;;;;;30.66;23.50;100047.77;107638;1259;59526;-68
2023/10/12 08:58:18;;;;;;;13.60;4.50;;;;;;;30.91;23.17;100045.38;108147;1252;59584;-69
2023/10/12 09:01:07;;;;;;;13.20;5.30;;;;;;;31.01;23.14;100042.63;108248;1253;73120;-68
2023/10/12 09:03:46;;;;;;;11.60;4.50;;;;;;;31.69;22.39;100042.95;108179;1253;71155;-69
2023/10/12 09:06:29;;;;;;;15.30;4.50;;;;;;;31.51;22.27;100035.96;108063;1252;72635;-69
2023/10/12 09:08:57;;;;;;;13.10;4.70;;;;;;;30.80;23.02;100033.33;108134;1253;59486;-69
2023/10/12 09:11:34;;;;;;;14.10;4.60;;;;;;;31.14;22.79;100024.05;108079;1252;59112;-68
2023/10/12 09:14:11;;;;;;;16.70;4.80;;;;;;;31.74;22.20;100023.68;108081;1254;72149;-68
2023/10/12 09:16:43;;;;;;;16.60;4.50;;;;;;;31.33;22.49;100019.45;108062;1253;72734;-67
2023/10/12 09:19:28;;;;;;;16.80;4.70;;;;;;;31.32;22.51;100021.98;108091;1253;75034;-70
2023/10/12 09:22:04;;;;;;;13.70;4.30;;;;;;;31.24;22.52;100016.05;108029;1253;61066;-68
2023/10/12 09:24:35;;;;;;;11.50;4.70;;;;;;;31.19;22.74;100012.66;108116;1253;59246;-68
2023/10/12 09:27:13;;;;;;;17.20;4.60;;;;;;;31.56;22.39;100001.95;108121;1252;72721;-69
2023/10/12 09:30:01;;;;;;;14.90;4.80;;;;;;;31.34;22.46;100006.77;108116;1253;68645;-70
2023/10/12 09:32:32;;;;;;;12.60;5.10;;;;;;;30.89;22.96;100002.29;108094;1253;71600;-68
2023/10/12 09:35:13;;;;;;;14.80;4.20;;;;;;;31.11;22.86;99996.79;108128;1253;60059;-68
2023/10/12 09:37:44;;;;;;;14.60;6.00;;;;;;;31.23;22.77;99992.73;108106;1257;60011;-67
2023/10/12 09:40:35;;;;;;;13.40;4.80;;;;;;;30.98;22.92;99995.34;108123;1253;73039;-68
2023/10/12 09:43:06;;;;;;;14.50;4.40;;;;;;;30.23;23.56;99989.42;108320;1253;70259;-67
2023/10/12 09:45:41;;;;;;;15.00;4.60;;;;;;;29.59;24.31;99993.25;108234;1253;70875;-69
2023/10/12 09:48:17;;;;;;;20.80;5.20;;;;;;;29.80;24.33;99989.72;108001;1252;60127;-70
2023/10/12 09:50:48;;;;;;;15.10;5.00;;;;;;;29.64;24.41;99983.67;108074;1252;60263;-66
2023/10/12 09:53:26;;;;;;;16.40;5.90;;;;;;;29.18;25.04;99976.86;108252;1254;73223;-69
2023/10/12 09:56:10;;;;;;;11.70;4.40;;;;;;;28.89;25.45;99975.49;108221;1253;71021;-64
2023/10/12 09:58:46;;;;;;;13.60;4.70;;;;;;;29.36;25.15;99976.87;108111;1254;75041;-68
2023/10/12 10:01:15;;;;;;;10.80;5.20;;;;;;;29.36;25.20;99973.83;108190;1252;59620;-68
2023/10/12 10:03:50;;;;;;;15.20;5.30;;;;;;;29.41;25.12;99970.25;108169;1254;62833;-66
2023/10/12 10:06:28;;;;;;;12.60;5.20;;;;;;;28.82;25.81;99966.23;108199;1253;71686;-68
2023/10/12 10:11:59;;;;;;;14.60;4.40;;;;;;;29.49;25.16;99950.51;107912;1254;72561;-68
2023/10/12 10:14:36;;;;;;;15.00;6.10;;;;;;;29.81;24.79;99944.91;108284;1254;62212;-69
2023/10/12 10:17:10;;;;;;;16.00;4.80;;;;;;;29.96;24.62;99944.31;108171;1253;59521;-69
2023/10/12 10:19:38;;;;;;;14.70;4.70;;;;;;;29.97;24.69;99939.98;108171;1252;71825;-68
2023/10/12 10:22:05;;;;;;;16.80;5.70;;;;;;;29.73;25.02;99936.99;108088;1254;70099;-69
2023/10/12 10:24:57;;;;;;;11.00;4.20;;;;;;;29.81;25.17;99935.33;107973;1253;73359;-68
2023/10/12 10:27:35;;;;;;;17.90;4.40;;;;;;;29.88;24.82;99933.08;108053;1253;59663;-69
2023/10/12 10:30:36;;;;;;;18.40;4.70;;;;;;;30.34;24.45;99929.70;108062;1253;62314;-68
2023/10/12 10:33:14;;;;;;;21.50;5.00;;;;;;;30.90;23.85;99919.27;108065;1254;73140;-68
2023/10/12 10:36:10;;;;;;;21.60;5.00;;;;;;;30.98;23.68;99911.26;108147;1254;68787;-68
2023/10/12 10:38:53;;;;;;;18.60;5.00;;;;;;;31.18;23.46;99904.80;108060;1253;72682;-67
2023/10/12 10:41:37;;;;;;;15.20;5.00;;;;;;;31.12;23.58;99905.13;108123;1254;60051;-69
2023/10/12 10:44:11;;;;;;;19.90;4.30;;;;;;;31.10;23.56;99901.19;108130;1253;60337;-68
2023/10/12 10:46:44;;;;;;;14.90;4.60;;;;;;;31.12;23.53;99908.85;108146;1254;73483;-68
2023/10/12 10:49:19;;;;;;;11.90;4.70;;;;;;;31.14;23.54;99903.60;108149;1254;72624;-68
2023/10/12 10:52:03;;;;;;;12.60;3.90;;;;;;;31.19;23.53;99908.59;108090;1253;71553;-68
2023/10/12 10:54:32;;;;;;;11.30;4.20;;;;;;;31.34;23.45;99901.75;108094;1254;61234;-68
2023/10/12 10:57:14;;;;;;;20.10;4.50;;;;;;;30.92;23.83;99902.75;108123;1253;59496;-70
2023/10/12 10:59:44;;;;;;;21.00;4.90;;;;;;;30.70;24.08;99895.04;108108;1253;73196;-70
2023/10/12 11:02:18;;;;;;;14.50;5.40;;;;;;;30.73;24.04;99889.18;108174;1253;71280;-68
2023/10/12 11:04:46;;;;;;;12.90;4.20;;;;;;;30.96;24.08;99883.27;108133;1253;72850;-69
2023/10/12 11:07:15;;;;;;;13.00;4.60;;;;;;;31.12;23.73;99882.45;108150;1253;61618;-67
2023/10/12 11:12:23;;;;;;;22.20;4.40;;;;;;;31.25;23.70;99874.68;108181;1253;73705;-67
2023/10/12 11:15:01;;;;;;;14.60;4.80;;;;;;;31.16;23.73;99873.59;108114;1254;71667;-69
2023/10/12 11:17:35;;;;;;;15.60;4.80;;;;;;;31.11;23.92;99869.38;108050;1254;72572;-66
2023/10/12 11:20:08;;;;;;;17.90;5.30;;;;;;;30.94;24.24;99866.65;108144;1254;61624;-68
2023/10/12 11:22:37;;;;;;;32.90;4.70;;;;;;;30.74;24.56;99860.05;108107;1252;61882;-67
2023/10/12 11:25:10;;;;;;;16.90;4.50;;;;;;;30.55;24.71;99865.38;108117;1257;73146;-68
2023/10/12 11:27:39;;;;;;;16.80;4.80;;;;;;;30.76;24.60;99858.27;108216;1251;69986;-68
2023/10/12 11:30:10;;;;;;;20.30;5.00;;;;;;;31.09;24.32;99857.03;108110;1253;72010;-68
2023/10/12 11:32:58;;;;;;;12.10;4.30;;;;;;;31.41;24.07;99856.95;108116;1253;60425;-68
2023/10/12 11:35:45;;;;;;;18.20;5.10;;;;;;;31.26;24.02;99856.95;108054;1251;59998;-68
2023/10/12 11:38:23;;;;;;;20.00;5.00;;;;;;;31.03;24.06;99851.16;108114;1253;71760;-68
2023/10/12 11:40:55;;;;;;;17.60;4.80;;;;;;;31.27;24.00;99844.63;108116;1257;72133;-69
2023/10/12 11:43:29;;;;;;;17.60;4.80;;;;;;;31.08;24.26;99841.33;108040;1254;72969;-68
2023/10/12 11:46:03;;;;;;;19.90;4.40;;;;;;;30.91;24.34;99837.54;108124;1253;59551;-69
2023/10/12 11:48:31;;;;;;;14.40;5.00;;;;;;;30.99;24.35;99838.04;108115;1253;59020;-68
2023/10/12 11:51:10;;;;;;;19.00;5.10;;;;;;;31.03;24.24;99835.42;108001;1253;73077;-68
2023/10/12 11:53:39;;;;;;;18.00;4.20;;;;;;;30.81;24.73;99837.65;108061;1256;69451;-68
2023/10/12 11:56:12;;;;;;;12.00;4.40;;;;;;;30.66;24.96;99825.05;108124;1253;74775;-69
2023/10/12 11:58:41;;;;;;;15.30;4.50;;;;;;;30.78;24.78;99825.49;108002;1254;62314;-68
2023/10/12 12:01:10;;;;;;;15.70;4.70;;;;;;;30.76;24.98;99823.23;108075;1253;59589;-67
2023/10/12 12:03:41;;;;;;;18.50;4.70;;;;;;;30.76;24.72;99825.77;108041;1253;73455;-70
2023/10/12 12:06:25;;;;;;;13.80;5.00;;;;;;;30.50;24.96;99820.39;108075;1255;69387;-69
2023/10/12 12:08:59;;;;;;;17.40;4.10;;;;;;;30.47;25.42;99809.70;108079;1253;72923;-68
2023/10/12 12:11:31;;;;;;;18.70;4.50;;;;;;;30.27;25.29;99802.01;108004;1253;60119;-67
2023/10/12 12:13:59;;;;;;;15.90;4.60;;;;;;;30.42;25.38;99795.98;108000;1253;60287;-69
2023/10/12 12:16:26;;;;;;;24.80;4.70;;;;;;;30.72;25.40;99800.02;108060;1255;71512;-70
2023/10/12 12:18:54;;;;;;;20.40;4.90;;;;;;;30.68;25.19;99805.60;107981;1253;69147;-68
2023/10/12 12:21:34;;;;;;;14.80;4.30;;;;;;;30.75;25.13;99799.05;108069;1257;75407;-67
2023/10/12 12:26:51;;;;;;;17.80;4.40;;;;;;;31.18;24.57;99782.36;108033;1253;62144;-68
2023/10/12 12:29:26;;;;;;;18.80;4.80;;;;;;;31.10;24.73;99781.44;108031;1253;74174;-68
2023/10/12 12:32:05;;;;;;;32.20;5.20;;;;;;;31.07;24.68;99778.52;108034;1253;69460;-69
2023/10/12 12:34:41;;;;;;;19.30;5.40;;;;;;;30.95;24.81;99770.42;108100;1253;74249;-69
2023/10/12 12:37:09;;;;;;;17.20;4.40;;;;;;;30.84;24.85;99766.23;108022;1253;60180;-69
2023/10/12 12:39:37;;;;;;;17.20;3.70;;;;;;;30.90;24.91;99769.85;108014;1253;59497;-69
2023/10/12 12:42:09;;;;;;;26.40;4.50;;;;;;;30.39;25.26;99768.49;108111;1257;72301;-69
2023/10/12 12:44:39;;;;;;;21.20;4.60;;;;;;;30.28;25.34;99762.45;108124;1253;70333;-69
2023/10/12 12:47:07;;;;;;;18.50;5.00;;;;;;;30.65;24.84;99760.54;108126;1253;72076;-69
2023/10/12 12:49:35;;;;;;;27.20;4.90;;;;;;;30.61;25.01;99756.64;108120;1253;60656;-69
2023/10/12 12:52:03;;;;;;;18.00;4.50;;;;;;;30.44;25.00;99757.48;108091;1253;60316;-69
2023/10/12 12:54:31;;;;;;;18.50;4.90;;;;;;;30.56;25.03;99747.12;108174;1254;72451;-69
2023/10/12 12:56:58;;;;;;;16.40;4.80;;;;;;;30.36;25.29;99748.23;108194;1253;70809;-68
2023/10/12 12:59:27;;;;;;;19.50;4.80;;;;;;;30.51;25.07;99747.33;108147;1253;70788;-67
2023/10/12 13:01:55;;;;;;;21.40;5.60;;;;;;;30.62;25.04;99747.33;108161;1253;60311;-66
2023/10/12 13:04:23;;;;;;;25.50;5.70;;;;;;;30.33;25.22;99740.83;108234;1253;60327;-67
2023/10/12 13:06:51;;;;;;;14.00;4.70;;;;;;;30.45;25.15;99743.43;108084;1253;72693;-69
2023/10/12 13:09:33;;;;;;;9.60;4.20;;;;;;;30.17;25.44;99744.65;108145;1253;70640;-70
2023/10/12 13:12:06;;;;;;;26.30;5.20;;;;;;;30.82;25.07;99742.27;108175;1253;73605;-69
2023/10/12 13:14:33;;;;;;;13.00;4.90;;;;;;;30.74;24.96;99739.08;108103;1253;59427;-69
2023/10/12 13:17:01;;;;;;;18.60;4.70;;;;;;;30.29;25.37;99740.74;108174;1252;60311;-68
2023/10/12 13:19:31;;;;;;;15.00;4.50;;;;;;;30.22;25.38;99733.91;108070;1252;75890;-68
2023/10/12 13:21:59;;;;;;;18.50;4.50;;;;;;;29.76;25.79;99729.70;108086;1257;69901;-69
2023/10/12 13:24:28;;;;;;;20.40;5.10;;;;;;;29.35;26.23;99733.38;108163;1253;70662;-68
2023/10/12 13:26:55;;;;;;;16.30;4.80;;;;;;;29.72;25.77;99728.11;108156;1253;60145;-67
2023/10/12 13:29:23;;;;;;;14.30;4.90;;;;;;;29.71;25.59;99727.67;108092;1251;60200;-68